Time;durP1;ratioP1;P1;durP2;ratioP2;P2;SDS_P1;SDS_P2;PMS_P1;PMS_P2;Temp;Humidity;BMP_temperature;BMP_pressure;BME280_temperature;BME280_humidity;BME280_pressure;Samples;Min_cycle;Max_cycle;Signal;HPM_P1;HPM_P2
2021/11/19 00:02:00;;;;;;;6.22;2.33;;;28.40;82.00;;;;;;5081320;28;20036;-69
2021/11/19 00:04:29;;;;;;;8.35;2.15;;;28.40;81.70;;;;;;5083687;28;20024;-67
2021/11/19 00:06:57;;;;;;;6.50;1.63;;;28.90;76.90;;;;;;5078221;28;20421;-68
2021/11/19 00:09:25;;;;;;;3.88;1.30;;;29.20;69.80;;;;;;5060598;28;20090;-67
2021/11/19 00:11:52;;;;;;;8.70;2.63;;;29.20;63.50;;;;;;5084236;28;20440;-68
2021/11/19 00:14:21;;;;;;;10.57;3.70;;;29.10;64.30;;;;;;5079429;28;20559;-69
2021/11/19 00:16:57;;;;;;;8.80;2.72;;;29.20;64.80;;;;;;5081232;28;20107;-69
2021/11/19 00:19:25;;;;;;;13.98;4.40;;;29.30;66.60;;;;;;5081345;28;20252;-67
2021/11/19 00:21:53;;;;;;;10.02;3.13;;;29.50;64.60;;;;;;5079712;28;20036;-70
2021/11/19 00:24:20;;;;;;;14.82;7.78;;;29.60;65.00;;;;;;5079082;28;20032;-70
2021/11/19 00:26:48;;;;;;;13.80;6.45;;;30.10;64.30;;;;;;5084132;28;20016;-67
2021/11/19 00:29:16;;;;;;;9.65;4.03;;;30.60;65.30;;;;;;5078940;28;20044;-68
2021/11/19 00:31:44;;;;;;;6.28;2.95;;;31.00;62.30;;;;;;5077945;28;20424;-69
2021/11/19 00:34:11;;;;;;;7.72;2.45;;;31.20;60.30;;;;;;5079006;28;20024;-69
2021/11/19 00:36:38;;;;;;;6.72;1.60;;;31.20;57.70;;;;;;5086704;28;20020;-66
2021/11/19 00:39:10;;;;;;;4.75;1.50;;;31.60;53.50;;;;;;5077428;28;20025;-66
2021/11/19 00:41:40;;;;;;;7.07;1.17;;;31.90;52.90;;;;;;5086587;28;20012;-66
2021/11/19 00:44:09;;;;;;;8.38;1.52;;;32.10;49.70;;;;;;5078490;28;20024;-66
2021/11/19 00:46:36;;;;;;;6.50;2.00;;;31.90;48.80;;;;;;5086883;28;20426;-68
2021/11/19 00:49:05;;;;;;;5.32;1.98;;;32.20;48.90;;;;;;5077886;28;20035;-66
2021/11/19 00:51:36;;;;;;;8.50;1.88;;;32.20;49.10;;;;;;5088051;28;20458;-69
2021/11/19 00:54:05;;;;;;;4.15;1.65;;;32.40;49.50;;;;;;5082246;28;20523;-67
2021/11/19 00:56:36;;;;;;;7.55;1.55;;;32.70;49.00;;;;;;5080318;28;20497;-67
2021/11/19 00:59:04;;;;;;;4.90;1.25;;;32.90;47.40;;;;;;5079234;28;20021;-67
2021/11/19 01:01:43;;;;;;;6.90;2.03;;;33.10;48.00;;;;;;5087320;28;20020;-68
2021/11/19 01:04:13;;;;;;;4.78;1.10;;;33.20;45.70;;;;;;5085175;28;20035;-68
2021/11/19 01:06:41;;;;;;;4.10;1.70;;;33.40;46.40;;;;;;5078955;28;20028;-67
2021/11/19 01:09:11;;;;;;;4.78;1.30;;;33.50;45.20;;;;;;5079206;28;20020;-69
2021/11/19 01:11:40;;;;;;;6.00;1.50;;;33.60;45.90;;;;;;5082314;28;20052;-67
2021/11/19 01:14:11;;;;;;;3.47;1.05;;;33.60;45.30;;;;;;5070271;28;20028;-70
2021/11/19 01:16:54;;;;;;;3.92;1.08;;;33.50;43.30;;;;;;5058121;28;20506;-72
2021/11/19 01:19:44;;;;;;;3.67;1.13;;;33.50;42.70;;;;;;5076167;28;20134;-67
2021/11/19 01:22:19;;;;;;;3.13;0.63;;;33.70;42.70;;;;;;5077745;28;20333;-76
2021/11/19 01:24:46;;;;;;;5.15;1.33;;;34.10;42.80;;;;;;5079098;28;20020;-69
2021/11/19 01:27:18;;;;;;;4.50;1.17;;;34.40;40.90;;;;;;5075782;28;20040;-67
2021/11/19 01:29:47;;;;;;;3.70;0.63;;;34.80;41.40;;;;;;5057020;28;20028;-66
2021/11/19 01:32:17;;;;;;;2.88;0.90;;;34.80;41.50;;;;;;5075658;28;20032;-68
2021/11/19 01:34:45;;;;;;;4.03;1.00;;;34.50;42.30;;;;;;5076281;28;20479;-68
2021/11/19 01:37:13;;;;;;;5.88;1.15;;;34.60;43.40;;;;;;5076852;28;20074;-70
2021/11/19 01:39:41;;;;;;;6.43;1.00;;;34.50;41.00;;;;;;5082912;28;20058;-67
2021/11/19 01:42:16;;;;;;;3.25;1.00;;;34.60;41.10;;;;;;5081761;28;20019;-68
2021/11/19 01:44:58;;;;;;;3.50;0.70;;;34.80;40.80;;;;;;5073973;28;20522;-68
2021/11/19 01:47:25;;;;;;;4.05;0.90;;;35.00;41.50;;;;;;5075625;28;20048;-66
2021/11/19 01:49:52;;;;;;;2.95;1.05;;;35.20;41.00;;;;;;5072687;28;20509;-67
2021/11/19 01:52:44;;;;;;;5.13;1.10;;;35.00;38.40;;;;;;5080800;28;20487;-66
2021/11/19 01:55:18;;;;;;;;;;;34.90;38.90;;;;;;5074449;28;20122;-72
2021/11/19 01:57:51;;;;;;;2.67;0.90;;;34.90;41.10;;;;;;5079406;28;19916;-68
2021/11/19 02:00:23;;;;;;;3.45;1.00;;;35.10;41.50;;;;;;5074676;28;20039;-67
2021/11/19 02:02:53;;;;;;;5.72;1.20;;;35.10;41.20;;;;;;5076920;28;20364;-74
2021/11/19 02:05:57;;;;;;;5.47;1.25;;;35.30;42.20;;;;;;5075190;28;20031;-65
2021/11/19 02:08:27;;;;;;;2.65;1.17;;;35.20;41.20;;;;;;5085426;28;20142;-66
2021/11/19 02:10:57;;;;;;;3.47;1.00;;;35.60;41.90;;;;;;5083540;28;20543;-71
2021/11/19 02:14:01;;;;;;;3.95;1.70;;;35.60;42.00;;;;;;5077026;28;20046;-68
2021/11/19 02:16:44;;;;;;;4.60;1.15;;;35.60;40.10;;;;;;5087815;28;20020;-69
2021/11/19 02:19:15;;;;;;;5.53;2.75;;;35.60;40.20;;;;;;4738813;28;10001127;-71
2021/11/19 02:21:52;;;;;;;3.75;1.13;;;35.70;40.90;;;;;;5087275;28;20024;-70
2021/11/19 02:24:30;;;;;;;6.20;1.30;;;35.90;40.60;;;;;;5089780;28;20020;-66
2021/11/19 02:27:08;;;;;;;4.72;1.00;;;35.80;40.70;;;;;;5078853;28;20027;-66
2021/11/19 02:29:39;;;;;;;7.18;1.55;;;36.00;39.90;;;;;;5088317;28;20517;-72
2021/11/19 02:32:22;;;;;;;4.05;1.33;;;35.90;39.70;;;;;;5088483;28;20012;-69
2021/11/19 02:34:50;;;;;;;4.72;0.90;;;36.00;40.00;;;;;;5082059;28;20088;-71
2021/11/19 02:37:26;;;;;;;3.67;1.00;;;35.90;40.00;;;;;;5088949;28;20024;-66
2021/11/19 02:39:58;;;;;;;4.18;1.00;;;36.00;40.90;;;;;;5095594;28;20024;-69
2021/11/19 02:42:30;;;;;;;3.92;0.90;;;36.00;40.20;;;;;;5084518;28;20039;-69
2021/11/19 02:45:01;;;;;;;4.57;0.85;;;36.20;40.70;;;;;;5072451;28;20122;-71
2021/11/19 02:47:30;;;;;;;4.00;1.20;;;36.70;40.00;;;;;;5076026;28;20040;-68
2021/11/19 02:49:58;;;;;;;2.78;1.05;;;36.90;40.70;;;;;;5095390;28;20414;-68
2021/11/19 02:52:30;;;;;;;2.30;1.23;;;36.70;39.80;;;;;;5091029;28;20032;-66
2021/11/19 02:54:59;;;;;;;4.65;1.20;;;36.80;39.10;;;;;;5090946;28;20048;-68
2021/11/19 02:57:27;;;;;;;2.67;0.95;;;36.70;39.60;;;;;;5089789;28;20032;-68
2021/11/19 02:59:56;;;;;;;2.45;1.00;;;36.30;39.50;;;;;;5091071;28;20608;-72
2021/11/19 03:02:31;;;;;;;8.52;1.58;;;36.20;40.60;;;;;;5084459;28;20026;-71
2021/11/19 03:05:02;;;;;;;3.95;1.00;;;36.30;40.20;;;;;;5090986;28;20024;-69
2021/11/19 03:07:29;;;;;;;;;;;36.40;41.20;;;;;;5086187;28;20031;-69
2021/11/19 03:10:02;;;;;;;3.20;0.90;;;36.30;39.80;;;;;;5090291;28;19908;-74
2021/11/19 03:12:31;;;;;;;5.72;0.82;;;36.50;40.20;;;;;;5090009;28;20020;-67
2021/11/19 03:15:01;;;;;;;7.68;1.58;;;36.20;40.10;;;;;;5090703;28;20034;-65
2021/11/19 03:17:28;;;;;;;6.18;1.00;;;36.30;40.50;;;;;;5080028;28;20020;-72
2021/11/19 03:19:55;;;;;;;7.13;1.40;;;36.30;41.10;;;;;;5089663;28;20481;-69
2021/11/19 03:22:26;;;;;;;3.63;1.10;;;36.30;40.90;;;;;;5088366;28;20107;-65
2021/11/19 03:24:53;;;;;;;4.78;1.27;;;36.20;41.30;;;;;;5090909;28;20024;-69
2021/11/19 03:27:23;;;;;;;4.32;1.25;;;36.40;40.40;;;;;;5090007;28;20493;-68
2021/11/19 03:29:52;;;;;;;4.60;1.08;;;36.20;41.30;;;;;;5090943;28;20109;-74
2021/11/19 03:32:22;;;;;;;4.05;1.13;;;36.20;41.10;;;;;;5082458;28;20016;-68
2021/11/19 03:34:50;;;;;;;3.78;1.10;;;36.30;41.90;;;;;;5090427;28;20024;-73
2021/11/19 03:37:18;;;;;;;2.83;1.10;;;36.20;41.40;;;;;;5090225;28;20173;-74
2021/11/19 03:39:45;;;;;;;3.25;0.95;;;35.80;41.40;;;;;;5091052;28;20053;-68
2021/11/19 03:42:14;;;;;;;4.18;1.27;;;35.70;41.90;;;;;;5092169;28;20024;-65
2021/11/19 03:44:45;;;;;;;4.05;1.00;;;35.40;41.60;;;;;;5086954;28;20511;-75
2021/11/19 03:47:23;;;;;;;5.88;1.15;;;34.80;43.00;;;;;;5090072;28;20024;-67
2021/11/19 03:49:53;;;;;;;3.80;1.38;;;34.50;44.30;;;;;;5072479;28;20031;-69
2021/11/19 03:52:26;;;;;;;5.60;1.85;;;34.30;45.10;;;;;;5082936;28;20020;-67
2021/11/19 03:54:56;;;;;;;2.85;1.50;;;34.40;45.10;;;;;;5090460;28;20048;-65
2021/11/19 03:57:25;;;;;;;5.82;2.08;;;34.50;45.40;;;;;;5083963;28;20036;-76
2021/11/19 03:59:54;;;;;;;15.18;13.38;;;34.30;44.60;;;;;;5079965;28;20021;-70
2021/11/19 04:02:27;;;;;;;10.35;8.65;;;34.50;44.80;;;;;;5076905;28;20133;-69
2021/11/19 04:04:55;;;;;;;6.20;3.45;;;34.70;44.40;;;;;;5066642;28;20068;-79
2021/11/19 04:07:22;;;;;;;6.18;2.22;;;35.00;44.90;;;;;;5084976;28;20451;-68
2021/11/19 04:09:50;;;;;;;5.55;1.60;;;34.70;44.20;;;;;;5094077;28;20514;-71
2021/11/19 04:12:22;;;;;;;2.90;1.50;;;34.30;44.20;;;;;;5086207;28;20060;-74
2021/11/19 04:14:51;;;;;;;5.30;1.80;;;34.30;44.90;;;;;;5085360;28;20020;-68
2021/11/19 04:17:19;;;;;;;2.45;1.30;;;34.20;44.80;;;;;;5086862;28;20051;-70
2021/11/19 04:19:47;;;;;;;4.85;1.00;;;34.50;46.00;;;;;;5072186;28;20118;-69
2021/11/19 04:22:17;;;;;;;4.85;1.88;;;34.40;45.30;;;;;;5088015;28;20328;-67
2021/11/19 04:24:51;;;;;;;3.17;0.85;;;34.40;44.40;;;;;;5088521;28;20051;-67
2021/11/19 04:27:19;;;;;;;5.47;1.52;;;34.10;44.70;;;;;;5081273;28;20016;-69
2021/11/19 04:29:46;;;;;;;5.97;1.10;;;33.80;46.90;;;;;;5083623;28;20517;-69
2021/11/19 04:32:15;;;;;;;2.65;1.27;;;33.20;46.00;;;;;;5086158;28;20024;-67
2021/11/19 04:34:42;;;;;;;3.15;1.10;;;32.70;46.90;;;;;;5089412;28;20040;-68
2021/11/19 04:37:10;;;;;;;2.08;1.20;;;32.40;47.60;;;;;;5077757;28;20035;-67
2021/11/19 04:39:37;;;;;;;3.10;1.20;;;32.10;48.10;;;;;;5081761;28;20118;-65
2021/11/19 04:42:04;;;;;;;3.47;1.25;;;31.80;49.20;;;;;;5089120;28;20115;-70
2021/11/19 04:44:32;;;;;;;5.95;1.38;;;31.50;49.20;;;;;;5090290;28;20031;-68
2021/11/19 04:47:00;;;;;;;3.08;1.00;;;31.40;49.20;;;;;;5091078;28;20028;-69
2021/11/19 04:49:27;;;;;;;3.10;0.98;;;31.40;50.40;;;;;;5097767;28;20009;-70
2021/11/19 04:51:54;;;;;;;3.80;1.23;;;31.30;49.80;;;;;;5091033;28;20066;-69
2021/11/19 04:54:23;;;;;;;3.83;1.45;;;31.10;50.60;;;;;;5090293;28;20044;-69
2021/11/19 04:56:52;;;;;;;4.38;1.40;;;31.00;51.20;;;;;;5096055;28;20550;-68
2021/11/19 04:59:21;;;;;;;5.60;0.95;;;31.00;50.70;;;;;;5089763;28;20080;-67
2021/11/19 05:01:51;;;;;;;3.75;1.27;;;31.00;51.60;;;;;;5086169;28;20493;-65
2021/11/19 05:04:18;;;;;;;4.22;1.40;;;31.00;51.20;;;;;;5088590;28;20516;-68
2021/11/19 05:06:46;;;;;;;2.83;1.13;;;30.90;51.60;;;;;;5089799;28;20142;-65
2021/11/19 05:09:13;;;;;;;4.43;1.23;;;30.70;51.90;;;;;;5089450;28;20375;-69
2021/11/19 05:11:55;;;;;;;3.42;0.95;;;30.60;52.10;;;;;;5087331;28;20067;-68
2021/11/19 05:14:23;;;;;;;5.40;1.40;;;30.60;52.50;;;;;;5084108;28;20059;-65
2021/11/19 05:16:51;;;;;;;3.88;1.67;;;30.50;52.80;;;;;;5081318;28;20028;-68
2021/11/19 05:19:18;;;;;;;4.80;1.08;;;30.30;53.30;;;;;;5080891;28;20185;-67
2021/11/19 05:21:46;;;;;;;4.82;1.85;;;30.30;52.80;;;;;;5083916;28;20036;-68
2021/11/19 05:24:14;;;;;;;3.22;1.13;;;30.20;53.00;;;;;;5087630;28;20024;-68
2021/11/19 05:26:44;;;;;;;5.13;1.40;;;30.10;54.20;;;;;;5090078;28;20024;-67
2021/11/19 05:29:11;;;;;;;4.00;1.70;;;30.00;54.10;;;;;;5071924;28;20716;-68
2021/11/19 05:31:39;;;;;;;2.55;0.95;;;29.80;54.40;;;;;;5068991;28;20059;-68
2021/11/19 05:34:06;;;;;;;2.83;1.10;;;29.60;55.70;;;;;;5088785;28;20024;-66
2021/11/19 05:36:33;;;;;;;2.70;0.95;;;29.50;56.10;;;;;;5088272;28;20480;-67
2021/11/19 05:39:01;;;;;;;3.17;1.23;;;29.40;56.10;;;;;;5080413;28;20058;-64
2021/11/19 05:41:29;;;;;;;1.92;1.25;;;29.40;56.20;;;;;;5057141;28;20433;-69
2021/11/19 05:43:57;;;;;;;4.93;3.03;;;29.40;56.40;;;;;;5088597;28;20047;-66
2021/11/19 05:46:27;;;;;;;5.07;2.60;;;29.30;55.50;;;;;;5089346;28;20024;-68
2021/11/19 05:48:58;;;;;;;4.18;1.00;;;29.30;55.70;;;;;;5088529;28;20107;-70
2021/11/19 05:51:27;;;;;;;1.67;0.93;;;29.20;54.80;;;;;;5083715;28;20024;-68
2021/11/19 05:53:55;;;;;;;2.75;0.90;;;29.20;55.70;;;;;;5085373;28;20087;-70
2021/11/19 05:56:23;;;;;;;4.28;1.05;;;29.10;56.20;;;;;;5088606;28;20024;-65
2021/11/19 05:58:51;;;;;;;2.88;0.80;;;29.10;55.70;;;;;;5089646;28;20020;-70
2021/11/19 06:01:20;;;;;;;3.67;1.58;;;29.10;56.10;;;;;;5084405;28;20016;-66
2021/11/19 06:03:49;;;;;;;7.60;1.45;;;29.10;54.40;;;;;;5086288;28;20032;-70
2021/11/19 06:06:17;;;;;;;23.67;3.90;;;28.90;54.90;;;;;;5088093;28;20096;-68
2021/11/19 06:08:44;;;;;;;3.53;1.38;;;28.90;56.30;;;;;;5084538;28;20012;-65
2021/11/19 06:11:23;;;;;;;3.33;1.08;;;28.80;56.50;;;;;;5077753;28;20068;-65
2021/11/19 06:13:57;;;;;;;3.20;1.08;;;28.70;56.40;;;;;;5086907;28;20052;-70
2021/11/19 06:16:44;;;;;;;2.08;0.93;;;28.60;56.90;;;;;;5086632;28;20486;-69
2021/11/19 06:19:18;;;;;;;3.08;1.10;;;28.60;57.60;;;;;;5084053;28;20035;-68
2021/11/19 06:22:06;;;;;;;5.47;1.50;;;28.60;58.10;;;;;;5062799;28;20036;-68
2021/11/19 06:24:45;;;;;;;4.47;1.15;;;28.60;57.20;;;;;;5084680;28;20030;-70
2021/11/19 06:27:19;;;;;;;6.25;2.85;;;28.60;57.00;;;;;;5081144;28;20078;-65
2021/11/19 06:29:47;;;;;;;10.40;3.50;;;28.60;57.30;;;;;;5084679;28;20032;-65
2021/11/19 06:32:14;;;;;;;17.23;2.92;;;28.60;57.50;;;;;;5073281;28;20027;-67
2021/11/19 06:34:41;;;;;;;5.95;1.52;;;28.80;57.30;;;;;;5081686;28;20051;-64
2021/11/19 06:37:08;;;;;;;6.72;1.70;;;28.90;57.60;;;;;;5095838;28;20035;-65
2021/11/19 06:39:38;;;;;;;7.57;2.15;;;29.00;58.40;;;;;;5079996;28;20047;-71
2021/11/19 06:42:06;;;;;;;6.82;2.20;;;28.50;59.30;;;;;;5083327;28;20035;-66
2021/11/19 06:44:33;;;;;;;8.00;2.15;;;28.00;60.60;;;;;;5086995;28;20024;-71
2021/11/19 06:47:00;;;;;;;11.25;2.50;;;27.70;61.80;;;;;;5079721;28;20008;-69
2021/11/19 06:49:28;;;;;;;10.15;2.50;;;27.50;62.80;;;;;;5075299;28;20533;-71
2021/11/19 06:51:55;;;;;;;6.20;2.65;;;27.20;62.90;;;;;;5077562;28;20107;-67
2021/11/19 06:54:23;;;;;;;5.85;2.22;;;26.90;64.50;;;;;;5093092;22;20055;-67
2021/11/19 06:56:51;;;;;;;8.75;2.78;;;26.60;66.00;;;;;;5089794;28;20028;-68
2021/11/19 06:59:19;;;;;;;9.23;2.90;;;26.40;67.40;;;;;;5089789;28;20162;-67
2021/11/19 07:01:46;;;;;;;10.45;3.83;;;26.20;68.60;;;;;;5086739;28;20404;-70
2021/11/19 07:04:13;;;;;;;8.02;2.63;;;26.10;69.70;;;;;;5089831;28;20017;-65
2021/11/19 07:06:41;;;;;;;7.95;3.72;;;25.80;70.30;;;;;;5087531;28;20028;-64
2021/11/19 07:09:10;;;;;;;8.38;2.60;;;25.50;72.10;;;;;;5085710;28;20019;-67
2021/11/19 07:11:37;;;;;;;10.88;3.00;;;25.40;74.00;;;;;;5082801;28;20036;-71
2021/11/19 07:14:05;;;;;;;8.10;2.85;;;25.20;75.70;;;;;;5088772;28;20470;-69
2021/11/19 07:16:35;;;;;;;7.50;3.08;;;25.10;77.60;;;;;;5084771;28;20024;-68
2021/11/19 07:19:07;;;;;;;9.77;2.90;;;25.00;78.50;;;;;;5084733;28;20503;-70
2021/11/19 07:21:36;;;;;;;8.50;2.85;;;24.90;79.60;;;;;;5085396;28;20134;-69
2021/11/19 07:24:04;;;;;;;9.35;3.20;;;24.80;81.00;;;;;;5084915;28;20034;-67
2021/11/19 07:26:32;;;;;;;7.53;2.65;;;24.80;82.60;;;;;;5069095;28;20066;-67
2021/11/19 07:28:59;;;;;;;11.23;2.85;;;24.70;84.20;;;;;;5087430;28;20024;-67
2021/11/19 07:31:27;;;;;;;12.35;3.50;;;24.60;85.30;;;;;;5087120;28;20058;-69
2021/11/19 07:33:54;;;;;;;14.23;3.40;;;24.50;86.20;;;;;;5086346;28;20065;-65
2021/11/19 07:36:22;;;;;;;10.57;3.60;;;24.30;88.20;;;;;;5087848;28;20035;-67
2021/11/19 07:38:50;;;;;;;13.50;4.13;;;24.10;90.10;;;;;;5071390;28;20038;-67
2021/11/19 07:41:19;;;;;;;11.35;4.25;;;24.00;91.20;;;;;;5087936;28;20036;-68
2021/11/19 07:43:46;;;;;;;15.50;7.82;;;23.80;91.90;;;;;;5087205;28;20055;-69
2021/11/19 07:46:18;;;;;;;12.13;4.30;;;23.60;93.10;;;;;;5079663;28;20102;-67
2021/11/19 07:48:46;;;;;;;15.47;4.90;;;23.40;94.20;;;;;;5082443;28;20024;-65
2021/11/19 07:51:17;;;;;;;18.38;6.88;;;23.20;95.20;;;;;;5082486;28;20023;-65
2021/11/19 07:53:47;;;;;;;21.65;8.43;;;23.00;96.80;;;;;;5082205;28;20041;-71
2021/11/19 07:56:16;;;;;;;18.20;6.10;;;22.80;98.20;;;;;;5073073;28;20399;-66
2021/11/19 07:58:44;;;;;;;21.17;5.63;;;22.50;99.50;;;;;;5068065;28;20024;-65
2021/11/19 08:01:12;;;;;;;14.02;4.80;;;22.20;99.90;;;;;;5067663;28;20058;-68
2021/11/19 08:03:39;;;;;;;18.73;4.60;;;22.00;99.90;;;;;;5067194;28;20528;-69
2021/11/19 08:06:07;;;;;;;17.50;5.15;;;21.80;99.90;;;;;;5070616;28;20024;-70
2021/11/19 08:08:37;;;;;;;16.20;5.10;;;21.50;99.90;;;;;;5067508;28;20047;-66
2021/11/19 08:11:07;;;;;;;15.32;4.88;;;21.20;99.90;;;;;;5070296;28;20036;-69
2021/11/19 08:13:34;;;;;;;17.48;5.00;;;21.00;99.90;;;;;;5068937;28;20016;-64
2021/11/19 08:16:02;;;;;;;16.67;4.80;;;20.90;99.90;;;;;;5066049;28;20031;-68
2021/11/19 08:18:33;;;;;;;18.92;5.03;;;20.70;99.90;;;;;;5045862;28;20060;-64
2021/11/19 08:21:02;;;;;;;24.25;5.38;;;20.50;99.90;;;;;;5045324;28;20177;-68
2021/11/19 08:23:36;;;;;;;15.35;5.53;;;20.40;99.90;;;;;;5046583;28;20029;-64
2021/11/19 08:26:08;;;;;;;21.02;5.95;;;20.40;99.90;;;;;;5068428;28;20039;-65
2021/11/19 08:28:36;;;;;;;21.45;5.78;;;20.20;99.90;;;;;;5068469;28;20027;-66
2021/11/19 08:31:07;;;;;;;22.08;6.05;;;20.10;99.90;;;;;;5067135;28;20024;-68
2021/11/19 08:33:34;;;;;;;24.00;5.90;;;19.90;99.90;;;;;;5064393;28;20858;-70
2021/11/19 08:36:03;;;;;;;29.10;7.88;;;19.90;99.90;;;;;;5053483;28;20273;-63
2021/11/19 08:38:30;;;;;;;25.98;7.63;;;19.90;99.90;;;;;;5062056;28;20031;-70
2021/11/19 08:40:57;;;;;;;23.25;6.40;;;19.90;99.90;;;;;;5064057;28;20548;-67
2021/11/19 08:43:31;;;;;;;22.73;6.28;;;19.80;99.90;;;;;;5063600;28;20028;-69
2021/11/19 08:46:00;;;;;;;28.17;5.65;;;19.80;99.90;;;;;;5062782;28;20139;-68
2021/11/19 08:48:29;;;;;;;18.88;5.13;;;19.90;99.90;;;;;;5064139;28;20032;-62
2021/11/19 08:50:58;;;;;;;23.40;5.85;;;19.80;99.90;;;;;;5063947;28;20037;-65
2021/11/19 08:53:25;;;;;;;20.90;6.50;;;19.80;99.90;;;;;;5066936;28;20035;-67
2021/11/19 08:55:55;;;;;;;22.90;5.07;;;19.70;99.90;;;;;;5084317;28;20089;-63
2021/11/19 08:58:26;;;;;;;25.08;6.95;;;19.70;99.90;;;;;;4376581;28;10000733;-68
2021/11/19 09:00:55;;;;;;;23.48;6.40;;;19.70;99.90;;;;;;5076481;28;20088;-63
2021/11/19 09:03:24;;;;;;;23.65;6.45;;;19.70;99.90;;;;;;5062127;28;20081;-66
2021/11/19 09:05:52;;;;;;;22.67;6.55;;;19.60;99.90;;;;;;5081878;28;20024;-64
2021/11/19 09:08:22;;;;;;;20.67;5.65;;;19.60;99.90;;;;;;5063588;28;20085;-68
2021/11/19 09:10:52;;;;;;;20.80;5.65;;;19.70;99.90;;;;;;5063831;28;20486;-68
2021/11/19 09:13:20;;;;;;;22.73;5.20;;;19.60;99.90;;;;;;5080853;28;20448;-68
2021/11/19 09:15:48;;;;;;;23.98;6.15;;;19.60;99.90;;;;;;5081712;28;20032;-65
2021/11/19 09:18:40;;;;;;;23.63;6.75;;;19.50;99.90;;;;;;5074778;28;20551;-65
2021/11/19 09:21:13;;;;;;;24.70;7.65;;;19.50;99.90;;;;;;5078182;28;20035;-70
2021/11/19 09:23:47;;;;;;;19.70;6.03;;;19.40;99.90;;;;;;5082207;28;20504;-64
2021/11/19 09:26:20;;;;;;;25.10;7.07;;;19.30;99.90;;;;;;5085427;28;20062;-64
2021/11/19 09:28:53;;;;;;;20.38;6.47;;;19.20;99.90;;;;;;5086680;28;20114;-67
2021/11/19 09:31:21;;;;;;;25.40;6.57;;;19.20;99.90;;;;;;5070102;28;20061;-63
2021/11/19 09:33:50;;;;;;;22.73;6.20;;;19.10;99.90;;;;;;5081568;28;20477;-68
2021/11/19 09:36:18;;;;;;;23.73;7.03;;;19.10;99.90;;;;;;5080973;28;20028;-67
2021/11/19 09:38:46;;;;;;;24.40;6.03;;;19.10;99.90;;;;;;5063622;28;20028;-67
2021/11/19 09:41:53;;;;;;;21.42;6.63;;;19.00;99.90;;;;;;5082484;28;20036;-64
2021/11/19 09:44:35;;;;;;;24.63;7.65;;;19.00;99.90;;;;;;5073342;28;20070;-65
2021/11/19 09:47:02;;;;;;;25.90;8.10;;;18.90;99.90;;;;;;5081619;28;20118;-67
2021/11/19 09:49:29;;;;;;;29.50;7.32;;;18.90;99.90;;;;;;5074279;28;21474;-66
2021/11/19 09:52:21;;;;;;;24.20;6.47;;;18.70;99.90;;;;;;5061267;28;20133;-67
2021/11/19 09:55:05;;;;;;;28.92;6.68;;;18.60;99.90;;;;;;5059121;28;20060;-65
2021/11/19 09:58:09;;;;;;;26.20;6.80;;;18.50;99.90;;;;;;5056007;28;20044;-64
2021/11/19 10:00:47;;;;;;;27.02;6.70;;;18.50;99.90;;;;;;5056346;28;20525;-64
2021/11/19 10:03:31;;;;;;;29.92;6.30;;;18.50;99.90;;;;;;5058608;28;20025;-64
2021/11/19 10:06:12;;;;;;;23.23;6.40;;;18.50;99.90;;;;;;5056556;28;20056;-63
2021/11/19 10:08:52;;;;;;;22.63;5.72;;;18.50;99.90;;;;;;5055896;28;20127;-64
2021/11/19 10:11:41;;;;;;;24.40;6.00;;;18.60;99.90;;;;;;5059459;28;20025;-66
2021/11/19 10:14:21;;;;;;;20.50;5.25;;;18.60;99.90;;;;;;5057839;28;20032;-66
2021/11/19 10:17:11;;;;;;;17.98;6.70;;;18.60;99.90;;;;;;5053262;28;20510;-67
2021/11/19 10:19:49;;;;;;;22.85;5.43;;;18.50;99.90;;;;;;5058527;28;20068;-64
2021/11/19 10:22:19;;;;;;;18.85;5.80;;;18.50;99.90;;;;;;5056216;28;20033;-66
2021/11/19 10:25:02;;;;;;;26.15;7.38;;;18.40;99.90;;;;;;5054647;28;20039;-67
2021/11/19 10:27:34;;;;;;;17.23;5.65;;;18.50;99.90;;;;;;5049560;28;20529;-71
2021/11/19 10:30:09;;;;;;;20.40;5.88;;;18.50;99.90;;;;;;5062521;28;20090;-68
2021/11/19 10:32:38;;;;;;;24.38;6.25;;;18.50;99.90;;;;;;5062921;28;20023;-65
2021/11/19 10:35:26;;;;;;;21.48;5.63;;;18.40;99.90;;;;;;5057090;28;20050;-67
2021/11/19 10:38:12;;;;;;;19.35;4.72;;;18.40;99.90;;;;;;5060719;28;20362;-67
2021/11/19 10:41:24;;;;;;;24.70;5.47;;;18.40;99.90;;;;;;5063972;28;20098;-68
2021/11/19 10:44:09;;;;;;;19.15;6.28;;;18.40;99.90;;;;;;5058791;28;20029;-67
2021/11/19 10:47:00;;;;;;;20.25;5.63;;;18.40;99.90;;;;;;5057457;28;20065;-68
2021/11/19 10:50:00;;;;;;;24.88;5.57;;;18.50;99.90;;;;;;5064017;28;20094;-69
2021/11/19 10:52:46;;;;;;;17.73;5.32;;;18.50;99.90;;;;;;5058671;28;20032;-68
2021/11/19 10:55:49;;;;;;;17.25;4.50;;;18.50;99.90;;;;;;5075015;28;20046;-69
2021/11/19 10:59:00;;;;;;;27.27;6.75;;;18.40;99.90;;;;;;5083424;28;20489;-68
2021/11/19 11:01:49;;;;;;;20.20;5.32;;;18.30;99.90;;;;;;5081036;28;20048;-70
2021/11/19 11:04:18;;;;;;;19.75;5.00;;;18.30;99.90;;;;;;5084800;28;20059;-69
2021/11/19 11:06:45;;;;;;;24.17;5.85;;;18.30;99.90;;;;;;5080625;28;20030;-70
2021/11/19 11:09:39;;;;;;;27.52;7.03;;;18.20;99.90;;;;;;5079888;28;20214;-70
2021/11/19 11:12:12;;;;;;;21.08;6.07;;;18.20;99.90;;;;;;5064650;28;20031;-72
2021/11/19 11:14:43;;;;;;;23.75;5.70;;;18.10;99.90;;;;;;5063435;28;20135;-73
2021/11/19 11:17:25;;;;;;;25.00;5.55;;;18.10;99.90;;;;;;5084955;28;20034;-69
2021/11/19 11:19:57;;;;;;;15.35;5.10;;;18.10;99.90;;;;;;5077771;28;20024;-72
2021/11/19 11:22:38;;;;;;;17.08;5.68;;;18.10;99.90;;;;;;5081643;28;20028;-70
2021/11/19 11:25:22;;;;;;;25.08;5.80;;;18.10;99.90;;;;;;5082917;28;20036;-74
2021/11/19 11:28:09;;;;;;;20.08;5.03;;;18.10;99.90;;;;;;5083483;28;20036;-73
2021/11/19 11:31:00;;;;;;;25.55;5.28;;;18.10;99.90;;;;;;5083366;28;20348;-70
2021/11/19 11:33:31;;;;;;;17.80;4.63;;;18.20;99.90;;;;;;5082297;28;20020;-71
2021/11/19 11:36:12;;;;;;;16.98;5.05;;;18.40;99.90;;;;;;5062743;28;20024;-72
2021/11/19 11:39:10;;;;;;;20.33;5.50;;;18.50;99.90;;;;;;5080479;28;20065;-71
2021/11/19 11:41:58;;;;;;;17.13;5.28;;;18.50;99.90;;;;;;5075229;28;20464;-72
2021/11/19 11:44:47;;;;;;;20.55;5.07;;;18.40;99.90;;;;;;5081573;28;20356;-71
2021/11/19 11:47:36;;;;;;;17.35;4.78;;;18.30;99.90;;;;;;5078461;28;20020;-73
2021/11/19 11:50:32;;;;;;;19.42;4.88;;;18.50;99.90;;;;;;5074282;28;20094;-69
2021/11/19 11:53:12;;;;;;;18.23;5.00;;;18.50;99.90;;;;;;5050750;28;20366;-73
2021/11/19 11:56:13;;;;;;;17.42;4.22;;;18.50;99.90;;;;;;5063298;28;20040;-69
2021/11/19 11:58:48;;;;;;;22.23;5.07;;;18.40;99.90;;;;;;5056114;28;20056;-73
2021/11/19 12:01:38;;;;;;;21.13;5.35;;;18.50;99.90;;;;;;5075279;28;20058;-73
2021/11/19 12:04:53;;;;;;;17.80;4.82;;;18.50;99.90;;;;;;5080878;28;20356;-73
2021/11/19 12:07:38;;;;;;;22.30;5.22;;;18.50;99.90;;;;;;4998751;28;20135;-73
2021/11/19 12:10:35;;;;;;;20.83;5.32;;;18.40;99.90;;;;;;4994393;28;20025;-70
2021/11/19 12:13:46;;;;;;;21.30;5.18;;;18.30;99.90;;;;;;5066310;28;20126;-75
2021/11/19 12:16:48;;;;;;;22.00;4.68;;;18.30;99.90;;;;;;5041961;28;20048;-72
2021/11/19 12:19:37;;;;;;;18.27;5.43;;;18.30;99.90;;;;;;5078351;28;20016;-74
2021/11/19 12:22:07;;;;;;;17.77;5.28;;;18.30;99.90;;;;;;5075376;28;20354;-73
2021/11/19 12:24:43;;;;;;;16.70;5.00;;;18.20;99.90;;;;;;5086022;28;20110;-73
2021/11/19 12:27:13;;;;;;;16.25;4.38;;;18.20;99.90;;;;;;5085091;28;20356;-74
2021/11/19 12:29:48;;;;;;;19.40;4.80;;;18.20;99.90;;;;;;5083733;28;20024;-70
2021/11/19 12:32:21;;;;;;;18.20;4.60;;;18.10;99.90;;;;;;5084556;28;20032;-72
2021/11/19 12:34:50;;;;;;;;;;;18.20;99.90;;;;;;5082356;28;20129;-73
2021/11/19 12:37:51;;;;;;;17.08;5.20;;;18.20;99.90;;;;;;5084457;28;19919;-71
2021/11/19 12:40:41;;;;;;;21.05;4.57;;;18.20;99.90;;;;;;5086298;28;20496;-68
2021/11/19 12:43:45;;;;;;;19.67;4.40;;;18.10;99.90;;;;;;5085343;28;20032;-72
2021/11/19 12:46:24;;;;;;;26.48;5.57;;;18.10;99.90;;;;;;5084195;28;20035;-71
2021/11/19 12:49:11;;;;;;;23.52;4.18;;;18.10;99.90;;;;;;5080633;28;20070;-72
2021/11/19 12:51:51;;;;;;;17.75;4.28;;;18.20;99.90;;;;;;5081034;28;20050;-72
2021/11/19 12:54:24;;;;;;;17.00;5.57;;;18.20;99.90;;;;;;5075490;28;20044;-66
2021/11/19 12:57:12;;;;;;;13.13;4.55;;;18.20;99.90;;;;;;5068832;28;20101;-73
2021/11/19 13:00:04;;;;;;;17.83;4.82;;;18.20;99.90;;;;;;5062640;28;20390;-70
2021/11/19 13:03:09;;;;;;;15.02;3.97;;;18.20;99.90;;;;;;5069770;28;20020;-72
2021/11/19 13:06:00;;;;;;;17.25;5.32;;;18.20;99.90;;;;;;5066935;28;20115;-72
2021/11/19 13:08:53;;;;;;;18.80;4.80;;;18.20;99.90;;;;;;5068657;28;20119;-72
2021/11/19 13:11:29;;;;;;;21.50;4.30;;;18.30;99.90;;;;;;5068732;28;20548;-71
2021/11/19 13:14:15;;;;;;;23.48;4.80;;;18.30;99.90;;;;;;5068669;28;20066;-71
2021/11/19 13:16:56;;;;;;;15.48;4.50;;;18.40;99.90;;;;;;5071225;28;20356;-68
2021/11/19 13:19:29;;;;;;;20.40;5.28;;;18.30;99.90;;;;;;5068707;28;20024;-71